Terminal Aerodrome Forecast
Issued by NWS

Home | Current Version | Previous Version | Text Only | Print | Product List | Glossary Off
Versions: 1 2 3 4 5 6 7 8 9 10 11 12 13 14 15 16

000
FTUS43 KABR 221720
TAFPIR
TAF
KPIR 221720Z 2218/2318 17014KT P6SM SKC
     FM230400 18013KT P6SM FEW250 WS020/20040KT
     FM231500 22013KT P6SM SCT250=

USA.gov is the U.S. government's official web portal to all federal, state and local government web resources and services.